Time;durP1;ratioP1;P1;durP2;ratioP2;P2;SDS_P1;SDS_P2;PMS_P1;PMS_P2;Temp;Humidity;BMP_temperature;BMP_pressure;BME280_temperature;BME280_humidity;BME280_pressure;Samples;Min_cycle;Max_cycle;Signal;HPM_P1;HPM_P2
2022/01/10 00:00:58;;;;;;;11.77;3.75;;;;;;;;;;5162837;27;20464;-57
2022/01/10 00:03:24;;;;;;;8.80;4.43;;;;;;;;;;5172761;27;20555;-56
2022/01/10 00:05:50;;;;;;;10.25;4.05;;;;;;;;;;5100158;27;20029;-53
2022/01/10 00:08:15;;;;;;;11.05;4.15;;;;;;;;;;5011046;28;20484;-55
2022/01/10 00:10:42;;;;;;;13.18;3.80;;;;;;;;;;4980433;28;20058;-51
2022/01/10 00:13:08;;;;;;;13.40;3.85;;;;;;;;;;4870023;29;20170;-55
2022/01/10 00:15:33;;;;;;;9.57;3.92;;;;;;;;;;4800669;29;20194;-58
2022/01/10 00:17:59;;;;;;;9.48;3.17;;;;;;;;;;4758934;29;20107;-55
2022/01/10 00:23:03;;;;;;;10.57;3.20;;;;;;;;;;5161196;27;20121;-54
2022/01/10 00:25:29;;;;;;;9.85;3.70;;;;;;;;;;5167199;27;20129;-55
2022/01/10 00:27:54;;;;;;;14.98;3.50;;;;;;;;;;5097493;27;1308835;-58
2022/01/10 00:30:22;;;;;;;7.75;3.30;;;;;;;;;;5128751;27;20027;-57
2022/01/10 00:32:48;;;;;;;11.20;3.88;;;;;;;;;;5078869;28;20034;-54
2022/01/10 00:35:13;;;;;;;8.52;3.33;;;;;;;;;;5031450;28;20035;-57
2022/01/10 00:37:41;;;;;;;11.13;3.17;;;;;;;;;;5008303;28;20042;-57
2022/01/10 00:40:08;;;;;;;10.43;3.55;;;;;;;;;;4960244;28;20035;-54
2022/01/10 00:42:34;;;;;;;6.85;3.13;;;;;;;;;;4900604;28;20087;-57
2022/01/10 00:45:02;;;;;;;10.85;3.00;;;;;;;;;;4793341;29;20039;-56
2022/01/10 00:50:05;;;;;;;10.40;3.00;;;;;;;;;;5152554;27;20472;-56
2022/01/10 00:52:31;;;;;;;10.73;4.30;;;;;;;;;;5148877;27;20054;-53
2022/01/10 00:54:56;;;;;;;10.02;3.17;;;;;;;;;;5164458;27;20055;-52
2022/01/10 00:57:22;;;;;;;11.57;3.92;;;;;;;;;;5171581;27;20027;-53
2022/01/10 00:59:47;;;;;;;8.27;3.33;;;;;;;;;;5113604;27;20055;-54
2022/01/10 01:02:12;;;;;;;8.95;3.20;;;;;;;;;;5074230;27;20380;-57
2022/01/10 01:04:38;;;;;;;13.15;3.53;;;;;;;;;;5069568;28;20045;-53
2022/01/10 01:07:03;;;;;;;10.70;3.00;;;;;;;;;;5033214;28;20030;-56
2022/01/10 01:09:30;;;;;;;12.65;3.45;;;;;;;;;;4980730;28;20684;-55
2022/01/10 01:14:56;;;;;;;10.07;2.85;;;;;;;;;;5156283;27;20562;-57
2022/01/10 01:17:34;;;;;;;8.32;3.42;;;;;;;;;;5083584;27;1298924;-56
2022/01/10 01:20:09;;;;;;;12.07;3.10;;;;;;;;;;5125376;27;20035;-54
2022/01/10 01:25:19;;;;;;;8.05;3.15;;;;;;;;;;5127184;27;20509;-51
2022/01/10 01:27:45;;;;;;;8.07;3.45;;;;;;;;;;5120997;27;20032;-55
2022/01/10 01:30:11;;;;;;;10.00;2.92;;;;;;;;;;5124071;27;20038;-55
2022/01/10 01:32:37;;;;;;;15.70;3.40;;;;;;;;;;5123382;27;20036;-57
2022/01/10 01:35:07;;;;;;;9.00;3.45;;;;;;;;;;5122005;27;20031;-56
2022/01/10 01:37:35;;;;;;;11.10;3.45;;;;;;;;;;5106747;27;20030;-57
2022/01/10 01:40:00;;;;;;;10.90;2.65;;;;;;;;;;5123035;27;20030;-56
2022/01/10 01:42:35;;;;;;;9.93;2.80;;;;;;;;;;5128184;27;20020;-55
2022/01/10 01:45:02;;;;;;;7.90;2.85;;;;;;;;;;5122235;27;20527;-56
2022/01/10 01:47:28;;;;;;;10.98;3.50;;;;;;;;;;5126839;27;20024;-54
2022/01/10 01:49:53;;;;;;;8.65;3.17;;;;;;;;;;5123511;27;20030;-57
2022/01/10 01:52:19;;;;;;;10.70;3.10;;;;;;;;;;5124924;27;20039;-54
2022/01/10 01:54:44;;;;;;;7.38;2.50;;;;;;;;;;5124207;27;20149;-57
2022/01/10 01:57:09;;;;;;;7.47;2.60;;;;;;;;;;5120996;27;20443;-52
2022/01/10 01:59:36;;;;;;;7.70;2.63;;;;;;;;;;5120740;27;20042;-55
2022/01/10 02:02:01;;;;;;;9.73;2.65;;;;;;;;;;5123039;27;20023;-55
2022/01/10 02:04:27;;;;;;;10.93;3.22;;;;;;;;;;5097666;27;20049;-56
2022/01/10 02:06:52;;;;;;;9.82;2.70;;;;;;;;;;5122116;27;20629;-56
2022/01/10 02:09:18;;;;;;;8.07;2.88;;;;;;;;;;5121591;27;20028;-54
2022/01/10 02:11:43;;;;;;;7.30;2.70;;;;;;;;;;5121445;27;20033;-53
2022/01/10 02:14:09;;;;;;;8.98;2.72;;;;;;;;;;5122442;27;20065;-57
2022/01/10 02:16:44;;;;;;;10.25;3.25;;;;;;;;;;5119880;27;20027;-54
2022/01/10 02:19:09;;;;;;;9.35;3.70;;;;;;;;;;5142293;27;20547;-56
2022/01/10 02:21:35;;;;;;;10.65;3.47;;;;;;;;;;5119556;27;20031;-57
2022/01/10 02:24:01;;;;;;;8.60;3.28;;;;;;;;;;5119029;28;20031;-57
2022/01/10 02:26:26;;;;;;;10.10;3.55;;;;;;;;;;5104378;28;20030;-54
2022/01/10 02:28:52;;;;;;;9.68;3.38;;;;;;;;;;5108393;28;20039;-57
2022/01/10 02:31:17;;;;;;;7.30;3.42;;;;;;;;;;5104556;28;20020;-51
2022/01/10 02:33:43;;;;;;;10.73;3.33;;;;;;;;;;5107680;28;20467;-53
2022/01/10 02:36:24;;;;;;;6.35;3.53;;;;;;;;;;5106101;27;20023;-57
2022/01/10 02:38:55;;;;;;;11.45;3.47;;;;;;;;;;5107462;28;20023;-56
2022/01/10 02:41:28;;;;;;;9.75;3.10;;;;;;;;;;5107211;27;20336;-57
2022/01/10 02:43:55;;;;;;;8.52;3.00;;;;;;;;;;5106145;28;20022;-56
2022/01/10 02:46:21;;;;;;;9.65;3.08;;;;;;;;;;5090507;28;20065;-54
2022/01/10 02:48:47;;;;;;;10.07;3.33;;;;;;;;;;5106370;28;20078;-57
2022/01/10 02:51:12;;;;;;;9.27;3.47;;;;;;;;;;5109231;27;20047;-54
2022/01/10 02:53:38;;;;;;;9.40;2.85;;;;;;;;;;5104059;28;20054;-56
2022/01/10 02:56:04;;;;;;;10.15;2.60;;;;;;;;;;5108830;28;20027;-55
2022/01/10 02:58:29;;;;;;;9.75;2.95;;;;;;;;;;5106288;28;20039;-56
2022/01/10 03:00:55;;;;;;;12.73;3.33;;;;;;;;;;5105123;28;20088;-53
2022/01/10 03:03:20;;;;;;;10.95;3.35;;;;;;;;;;5108009;27;20028;-57
2022/01/10 03:05:45;;;;;;;9.07;3.53;;;;;;;;;;5107848;28;20053;-55
2022/01/10 03:08:11;;;;;;;9.50;3.38;;;;;;;;;;5106500;27;20031;-56
2022/01/10 03:10:36;;;;;;;6.75;3.05;;;;;;;;;;5107667;28;20023;-56
2022/01/10 03:13:02;;;;;;;10.00;3.30;;;;;;;;;;5107613;27;20108;-56
2022/01/10 03:15:28;;;;;;;11.00;3.28;;;;;;;;;;5106484;28;20516;-57
2022/01/10 03:17:54;;;;;;;8.82;3.47;;;;;;;;;;5107075;28;20107;-55
2022/01/10 03:20:22;;;;;;;10.23;3.92;;;;;;;;;;5095202;28;21356;-52
2022/01/10 03:22:47;;;;;;;10.38;3.50;;;;;;;;;;5086430;28;20039;-57
2022/01/10 03:25:13;;;;;;;10.30;4.18;;;;;;;;;;5085137;28;20039;-56
2022/01/10 03:27:38;;;;;;;9.15;3.60;;;;;;;;;;5086761;28;20372;-56
2022/01/10 03:30:04;;;;;;;13.30;4.18;;;;;;;;;;5084390;28;20107;-57
2022/01/10 03:32:30;;;;;;;11.45;3.70;;;;;;;;;;5085834;28;20172;-57
2022/01/10 03:34:57;;;;;;;10.50;3.97;;;;;;;;;;5085351;28;20028;-52
2022/01/10 03:37:23;;;;;;;13.50;3.65;;;;;;;;;;5084018;28;20043;-51
2022/01/10 03:39:49;;;;;;;11.68;3.80;;;;;;;;;;5085212;28;20035;-56
2022/01/10 03:42:14;;;;;;;12.57;4.00;;;;;;;;;;5085488;28;21164;-50
2022/01/10 03:44:40;;;;;;;6.05;3.60;;;;;;;;;;5085170;28;20383;-54
2022/01/10 03:47:05;;;;;;;12.85;3.83;;;;;;;;;;5086830;28;20040;-52
2022/01/10 03:49:31;;;;;;;8.02;3.15;;;;;;;;;;5083179;28;20055;-53
2022/01/10 03:51:56;;;;;;;10.40;4.28;;;;;;;;;;5069847;28;20028;-51
2022/01/10 03:54:22;;;;;;;11.40;4.43;;;;;;;;;;5082432;28;20039;-50
2022/01/10 03:56:48;;;;;;;17.50;3.42;;;;;;;;;;5084138;28;20648;-50
2022/01/10 03:59:13;;;;;;;6.85;2.70;;;;;;;;;;5084229;28;20040;-51
2022/01/10 04:01:39;;;;;;;11.60;3.13;;;;;;;;;;5084994;28;20027;-50
2022/01/10 04:04:07;;;;;;;8.77;2.80;;;;;;;;;;5084899;28;20032;-52
2022/01/10 04:06:33;;;;;;;7.15;2.90;;;;;;;;;;5084860;28;20015;-53
2022/01/10 04:08:58;;;;;;;8.27;3.08;;;;;;;;;;5085864;28;20038;-52
2022/01/10 04:11:24;;;;;;;8.52;2.97;;;;;;;;;;5083918;28;20028;-50
2022/01/10 04:13:49;;;;;;;11.95;3.47;;;;;;;;;;5084251;28;20042;-53
2022/01/10 04:16:15;;;;;;;8.13;3.00;;;;;;;;;;5083257;28;20443;-50
2022/01/10 04:18:40;;;;;;;11.00;3.05;;;;;;;;;;5084143;28;20135;-52
2022/01/10 04:21:06;;;;;;;8.50;3.10;;;;;;;;;;5102092;27;20035;-53
2022/01/10 04:23:31;;;;;;;10.95;3.58;;;;;;;;;;5105839;27;20038;-53
2022/01/10 04:25:57;;;;;;;8.75;2.88;;;;;;;;;;5106053;27;20546;-53
2022/01/10 04:28:22;;;;;;;10.35;3.13;;;;;;;;;;5109290;27;20027;-51
2022/01/10 04:30:48;;;;;;;9.63;2.80;;;;;;;;;;5109474;27;20023;-50
2022/01/10 04:33:17;;;;;;;11.65;2.80;;;;;;;;;;5109394;27;20580;-51
2022/01/10 04:35:43;;;;;;;9.00;3.00;;;;;;;;;;5093428;28;20023;-52
2022/01/10 04:38:10;;;;;;;8.63;3.20;;;;;;;;;;5107892;27;20049;-54
2022/01/10 04:40:35;;;;;;;11.07;3.50;;;;;;;;;;5107296;27;20027;-52
2022/01/10 04:43:01;;;;;;;12.23;3.00;;;;;;;;;;5108799;27;20041;-52
2022/01/10 04:45:26;;;;;;;7.55;2.65;;;;;;;;;;5106570;27;20143;-55
2022/01/10 04:47:51;;;;;;;7.40;2.83;;;;;;;;;;5108872;27;20032;-55
2022/01/10 04:52:50;;;;;;;10.07;3.10;;;;;;;;;;5110932;27;20504;-51
2022/01/10 04:55:16;;;;;;;10.13;3.17;;;;;;;;;;5091570;28;20374;-51
2022/01/10 04:57:41;;;;;;;12.35;3.20;;;;;;;;;;5109086;27;20084;-54
2022/01/10 05:00:10;;;;;;;6.78;2.90;;;;;;;;;;5107304;27;20368;-50
2022/01/10 05:02:36;;;;;;;9.18;3.05;;;;;;;;;;5107846;28;20110;-51
2022/01/10 05:05:02;;;;;;;6.63;2.50;;;;;;;;;;5105827;27;20039;-51
2022/01/10 05:07:28;;;;;;;13.90;3.22;;;;;;;;;;5108255;27;20030;-54
2022/01/10 05:09:53;;;;;;;12.40;4.10;;;;;;;;;;5105798;27;20023;-54
2022/01/10 05:12:20;;;;;;;9.77;3.30;;;;;;;;;;5105247;28;20590;-54
2022/01/10 05:14:46;;;;;;;12.43;3.15;;;;;;;;;;5104469;28;20090;-51
2022/01/10 05:17:11;;;;;;;9.10;3.33;;;;;;;;;;5110056;28;20159;-54
2022/01/10 05:19:37;;;;;;;7.75;2.92;;;;;;;;;;5104838;28;20216;-54
2022/01/10 05:22:03;;;;;;;6.55;2.88;;;;;;;;;;5108297;28;21219;-51
2022/01/10 05:24:28;;;;;;;13.30;4.10;;;;;;;;;;5107461;28;20027;-50
2022/01/10 05:26:54;;;;;;;11.65;3.38;;;;;;;;;;5107627;28;20383;-54
2022/01/10 05:29:19;;;;;;;12.10;3.30;;;;;;;;;;5104999;28;20027;-51
2022/01/10 05:31:45;;;;;;;9.20;3.00;;;;;;;;;;5108281;28;20682;-51
2022/01/10 05:34:10;;;;;;;13.35;3.05;;;;;;;;;;5110756;28;20095;-53
2022/01/10 05:36:35;;;;;;;7.25;3.00;;;;;;;;;;5108479;28;20074;-51
2022/01/10 05:39:02;;;;;;;9.43;3.92;;;;;;;;;;5109068;28;20027;-50
2022/01/10 05:41:27;;;;;;;29.55;13.70;;;;;;;;;;5107928;28;20059;-54
2022/01/10 05:43:55;;;;;;;21.52;6.50;;;;;;;;;;5110707;28;20379;-51
2022/01/10 05:46:21;;;;;;;11.93;4.10;;;;;;;;;;5108316;28;20020;-50
2022/01/10 05:48:49;;;;;;;8.60;3.42;;;;;;;;;;5108174;28;20037;-53
2022/01/10 05:51:15;;;;;;;9.27;3.03;;;;;;;;;;5094384;28;20051;-54
2022/01/10 05:53:41;;;;;;;7.22;3.25;;;;;;;;;;5106869;28;20035;-50
2022/01/10 05:56:07;;;;;;;14.68;3.58;;;;;;;;;;5093077;28;20097;-54
2022/01/10 05:58:32;;;;;;;11.15;3.03;;;;;;;;;;5106483;27;20024;-55
2022/01/10 06:00:58;;;;;;;9.52;3.33;;;;;;;;;;5112246;27;20509;-53
2022/01/10 06:03:23;;;;;;;12.07;3.50;;;;;;;;;;5096050;27;20031;-51
2022/01/10 06:05:49;;;;;;;14.48;3.95;;;;;;;;;;5112538;27;20031;-51
2022/01/10 06:08:14;;;;;;;9.40;3.22;;;;;;;;;;5112004;27;20035;-53
2022/01/10 06:10:39;;;;;;;9.05;3.20;;;;;;;;;;5112876;27;20303;-51
2022/01/10 06:13:05;;;;;;;12.05;3.65;;;;;;;;;;5099299;27;20027;-50
2022/01/10 06:15:31;;;;;;;12.02;3.58;;;;;;;;;;5112264;27;20066;-54
2022/01/10 06:17:57;;;;;;;10.25;4.57;;;;;;;;;;5118058;27;20031;-52
2022/01/10 06:20:23;;;;;;;10.27;3.65;;;;;;;;;;5111155;27;20494;-50
2022/01/10 06:22:48;;;;;;;10.35;3.67;;;;;;;;;;5096562;27;20118;-52
2022/01/10 06:25:18;;;;;;;14.70;3.65;;;;;;;;;;5109785;27;20020;-50
2022/01/10 06:27:44;;;;;;;9.73;3.80;;;;;;;;;;5071692;27;20381;-51
2022/01/10 06:30:10;;;;;;;17.92;4.38;;;;;;;;;;5093921;27;20023;-49
2022/01/10 06:32:35;;;;;;;12.55;4.13;;;;;;;;;;5113376;27;20136;-49
2022/01/10 06:35:00;;;;;;;8.48;3.60;;;;;;;;;;5112470;27;20049;-53
2022/01/10 06:37:26;;;;;;;11.20;3.92;;;;;;;;;;5094823;27;20728;-53
2022/01/10 06:39:52;;;;;;;8.55;3.80;;;;;;;;;;5091402;27;20064;-52
2022/01/10 06:42:19;;;;;;;9.68;3.85;;;;;;;;;;5110553;27;20035;-54
2022/01/10 06:44:44;;;;;;;11.55;4.15;;;;;;;;;;5091395;27;20042;-50
2022/01/10 06:47:10;;;;;;;9.98;4.05;;;;;;;;;;5112052;27;20023;-55
2022/01/10 06:49:35;;;;;;;15.45;4.35;;;;;;;;;;5109662;27;20020;-54
2022/01/10 06:52:01;;;;;;;12.93;4.45;;;;;;;;;;5094138;28;20675;-50
2022/01/10 06:54:27;;;;;;;10.35;4.50;;;;;;;;;;5109832;27;20043;-51
2022/01/10 06:56:53;;;;;;;13.80;4.60;;;;;;;;;;5110059;27;20078;-52
2022/01/10 06:59:19;;;;;;;14.75;4.70;;;;;;;;;;5112715;27;20024;-53
2022/01/10 07:01:45;;;;;;;9.77;4.15;;;;;;;;;;5090251;27;20541;-52
2022/01/10 07:04:11;;;;;;;10.75;4.40;;;;;;;;;;5110941;27;20548;-52
2022/01/10 07:06:36;;;;;;;15.77;4.93;;;;;;;;;;5110768;27;20031;-51
2022/01/10 07:09:02;;;;;;;20.90;5.13;;;;;;;;;;5110515;27;20866;-54
2022/01/10 07:11:27;;;;;;;12.38;4.55;;;;;;;;;;5110133;27;20112;-52
2022/01/10 07:13:53;;;;;;;17.48;5.43;;;;;;;;;;5111850;27;20512;-52
2022/01/10 07:16:19;;;;;;;15.60;4.82;;;;;;;;;;5112826;27;21006;-52
2022/01/10 07:18:44;;;;;;;10.00;4.38;;;;;;;;;;5109416;27;20035;-54
2022/01/10 07:21:10;;;;;;;10.00;4.63;;;;;;;;;;5109841;27;20088;-54
2022/01/10 07:23:35;;;;;;;10.73;4.78;;;;;;;;;;5109407;27;20117;-50
2022/01/10 07:26:01;;;;;;;13.20;4.85;;;;;;;;;;5109724;27;20111;-53
2022/01/10 07:28:26;;;;;;;18.67;4.88;;;;;;;;;;5108716;27;20065;-55
2022/01/10 07:30:52;;;;;;;11.18;5.10;;;;;;;;;;5112341;27;20085;-50
2022/01/10 07:33:17;;;;;;;11.35;4.82;;;;;;;;;;5108948;27;20171;-53
2022/01/10 07:35:43;;;;;;;13.88;5.32;;;;;;;;;;5111325;27;20753;-52
2022/01/10 07:38:08;;;;;;;16.95;4.57;;;;;;;;;;5110539;27;20525;-51
2022/01/10 07:40:34;;;;;;;11.82;4.70;;;;;;;;;;5109169;27;20425;-50
2022/01/10 07:42:59;;;;;;;18.70;5.20;;;;;;;;;;5111652;27;20033;-51
2022/01/10 07:45:24;;;;;;;12.00;4.53;;;;;;;;;;5109947;27;20032;-51
2022/01/10 07:47:51;;;;;;;11.55;4.57;;;;;;;;;;5111305;27;20027;-52
2022/01/10 07:50:16;;;;;;;13.63;4.78;;;;;;;;;;5110610;27;20027;-51
2022/01/10 07:52:42;;;;;;;12.98;5.00;;;;;;;;;;5109200;27;20167;-50
2022/01/10 07:55:08;;;;;;;21.08;5.75;;;;;;;;;;5111391;27;20024;-54
2022/01/10 07:57:34;;;;;;;15.52;5.25;;;;;;;;;;5108931;27;20035;-52
2022/01/10 07:59:59;;;;;;;15.82;5.65;;;;;;;;;;5111861;27;20031;-51
2022/01/10 08:02:26;;;;;;;11.50;5.47;;;;;;;;;;5110872;27;20031;-56
2022/01/10 08:04:52;;;;;;;15.52;6.05;;;;;;;;;;5112903;27;20023;-54
2022/01/10 08:07:20;;;;;;;17.75;5.82;;;;;;;;;;5092668;28;20066;-52
2022/01/10 08:09:45;;;;;;;15.32;5.07;;;;;;;;;;5115096;27;20045;-52
2022/01/10 08:12:10;;;;;;;14.43;5.90;;;;;;;;;;5110027;27;20023;-50
2022/01/10 08:14:36;;;;;;;16.42;5.88;;;;;;;;;;5111597;27;20479;-55
2022/01/10 08:17:02;;;;;;;13.05;5.10;;;;;;;;;;5110753;27;20036;-49
2022/01/10 08:19:30;;;;;;;16.63;5.95;;;;;;;;;;5090020;27;20034;-50
2022/01/10 08:21:56;;;;;;;24.08;5.60;;;;;;;;;;5109566;27;20035;-53
2022/01/10 08:24:22;;;;;;;16.67;5.90;;;;;;;;;;5110957;27;20554;-53
2022/01/10 08:26:49;;;;;;;18.83;5.97;;;;;;;;;;5089861;27;20054;-54
2022/01/10 08:29:15;;;;;;;21.95;6.75;;;;;;;;;;5109580;27;20038;-50
2022/01/10 08:31:40;;;;;;;23.67;6.50;;;;;;;;;;5110924;27;20023;-50
2022/01/10 08:34:06;;;;;;;18.38;6.35;;;;;;;;;;5109305;27;20031;-51
2022/01/10 08:36:33;;;;;;;16.00;6.70;;;;;;;;;;5110533;27;20031;-54
2022/01/10 08:38:59;;;;;;;16.25;7.25;;;;;;;;;;5106332;27;20457;-52
2022/01/10 08:41:24;;;;;;;15.13;6.30;;;;;;;;;;5110105;27;20122;-50
2022/01/10 08:43:49;;;;;;;19.08;8.98;;;;;;;;;;5109656;27;20683;-50
2022/01/10 08:46:15;;;;;;;18.58;7.32;;;;;;;;;;5108874;27;20035;-50
2022/01/10 08:48:41;;;;;;;21.95;7.15;;;;;;;;;;5108430;27;20027;-54
2022/01/10 08:51:07;;;;;;;20.17;7.28;;;;;;;;;;5108653;27;20027;-52
2022/01/10 08:53:33;;;;;;;19.00;8.88;;;;;;;;;;5109529;27;20046;-51
2022/01/10 08:55:59;;;;;;;19.98;8.05;;;;;;;;;;5110072;27;20112;-50
2022/01/10 08:58:26;;;;;;;21.67;8.15;;;;;;;;;;5108428;27;20031;-53
2022/01/10 09:00:52;;;;;;;17.35;8.18;;;;;;;;;;5106701;27;20028;-52
2022/01/10 09:03:18;;;;;;;20.83;7.68;;;;;;;;;;5108095;27;20526;-50
2022/01/10 09:05:43;;;;;;;17.48;7.63;;;;;;;;;;5108514;27;20027;-51
2022/01/10 09:08:09;;;;;;;14.20;6.10;;;;;;;;;;5107611;27;20092;-51
2022/01/10 09:10:34;;;;;;;14.90;6.38;;;;;;;;;;5111093;28;20524;-50
2022/01/10 09:13:00;;;;;;;17.13;6.80;;;;;;;;;;5108338;28;20023;-50
2022/01/10 09:15:26;;;;;;;12.63;5.00;;;;;;;;;;5109530;28;20449;-52
2022/01/10 09:17:52;;;;;;;12.93;5.43;;;;;;;;;;5111139;28;20148;-51
2022/01/10 09:20:18;;;;;;;12.45;5.50;;;;;;;;;;5111062;28;20031;-50
2022/01/10 09:22:43;;;;;;;13.38;5.30;;;;;;;;;;5108479;28;20172;-54
2022/01/10 09:25:09;;;;;;;11.00;5.35;;;;;;;;;;5115675;28;20070;-50
2022/01/10 09:27:34;;;;;;;17.92;6.30;;;;;;;;;;5109352;28;20040;-51
2022/01/10 09:29:59;;;;;;;12.43;5.35;;;;;;;;;;5112305;28;20484;-54
2022/01/10 09:32:25;;;;;;;13.40;5.82;;;;;;;;;;5111881;28;20038;-54
2022/01/10 09:34:50;;;;;;;16.70;6.03;;;;;;;;;;5109739;27;20023;-51
2022/01/10 09:37:16;;;;;;;14.63;5.55;;;;;;;;;;5111595;27;20024;-53
2022/01/10 09:39:41;;;;;;;13.63;5.60;;;;;;;;;;5113034;27;20019;-52
2022/01/10 09:42:07;;;;;;;17.13;5.63;;;;;;;;;;5112523;27;20024;-52
2022/01/10 09:44:34;;;;;;;12.02;5.28;;;;;;;;;;5113855;27;20023;-52
2022/01/10 09:47:00;;;;;;;16.30;5.47;;;;;;;;;;5115984;27;20043;-52
2022/01/10 09:49:25;;;;;;;19.65;5.82;;;;;;;;;;5092901;27;20042;-49
2022/01/10 09:51:51;;;;;;;13.55;5.38;;;;;;;;;;5117714;27;20031;-54
2022/01/10 09:54:16;;;;;;;16.88;5.82;;;;;;;;;;5112633;27;20030;-52
2022/01/10 09:56:43;;;;;;;12.90;5.55;;;;;;;;;;5114967;27;20027;-57
2022/01/10 09:59:09;;;;;;;16.63;5.28;;;;;;;;;;5113015;27;20055;-50
2022/01/10 10:01:34;;;;;;;12.63;5.18;;;;;;;;;;5111851;27;20066;-54
2022/01/10 10:04:01;;;;;;;10.57;5.45;;;;;;;;;;5113765;27;20019;-50
2022/01/10 10:06:29;;;;;;;16.33;5.78;;;;;;;;;;5117367;27;20073;-50
2022/01/10 10:09:04;;;;;;;10.50;5.03;;;;;;;;;;5111866;27;20453;-53
2022/01/10 10:11:42;;;;;;;15.85;5.95;;;;;;;;;;5095205;28;20027;-51
2022/01/10 10:14:09;;;;;;;14.25;5.25;;;;;;;;;;5090497;28;20380;-48
2022/01/10 10:16:36;;;;;;;14.48;4.78;;;;;;;;;;5114325;27;20050;-53
2022/01/10 10:19:04;;;;;;;16.45;5.85;;;;;;;;;;5114754;27;20065;-56
2022/01/10 10:21:30;;;;;;;16.98;5.90;;;;;;;;;;5112896;27;20060;-55
2022/01/10 10:23:56;;;;;;;13.60;5.68;;;;;;;;;;5114044;27;20160;-50
2022/01/10 10:26:24;;;;;;;15.43;5.15;;;;;;;;;;5109621;27;20142;-51
2022/01/10 10:28:54;;;;;;;13.82;5.70;;;;;;;;;;5110523;27;20295;-55
2022/01/10 10:31:28;;;;;;;18.42;6.30;;;;;;;;;;5111804;27;20118;-57
2022/01/10 10:33:56;;;;;;;16.98;6.05;;;;;;;;;;5110864;27;20079;-56
2022/01/10 10:36:25;;;;;;;14.88;6.10;;;;;;;;;;5112465;27;20023;-52
2022/01/10 10:38:51;;;;;;;14.65;5.82;;;;;;;;;;5110190;27;20088;-52
2022/01/10 10:41:19;;;;;;;14.73;6.05;;;;;;;;;;5112001;27;20448;-51
2022/01/10 10:43:48;;;;;;;15.60;5.72;;;;;;;;;;5107967;27;20015;-55
2022/01/10 10:46:17;;;;;;;14.25;6.63;;;;;;;;;;5095232;27;20028;-51
2022/01/10 10:48:53;;;;;;;15.15;5.55;;;;;;;;;;5109210;27;20118;-50
2022/01/10 10:51:19;;;;;;;18.77;6.50;;;;;;;;;;5112223;27;20039;-52
2022/01/10 10:53:45;;;;;;;9.30;5.60;;;;;;;;;;5092908;27;20682;-52
2022/01/10 10:56:10;;;;;;;14.07;5.53;;;;;;;;;;5108303;27;20027;-55
2022/01/10 10:58:36;;;;;;;13.10;5.13;;;;;;;;;;5109274;27;20023;-54
2022/01/10 11:01:03;;;;;;;14.20;5.72;;;;;;;;;;5108208;27;20790;-54
2022/01/10 11:03:28;;;;;;;11.15;5.50;;;;;;;;;;5111525;27;20026;-53
2022/01/10 11:05:57;;;;;;;16.05;5.57;;;;;;;;;;5092540;27;20032;-53
2022/01/10 11:08:25;;;;;;;12.30;5.35;;;;;;;;;;5107932;27;20028;-53
2022/01/10 11:10:51;;;;;;;14.55;4.68;;;;;;;;;;5109414;27;20039;-50
2022/01/10 11:13:17;;;;;;;12.00;4.35;;;;;;;;;;5106295;27;20032;-58
2022/01/10 11:15:43;;;;;;;14.68;4.80;;;;;;;;;;5108918;27;20617;-53
2022/01/10 11:18:09;;;;;;;13.90;5.10;;;;;;;;;;5108738;27;20066;-51
2022/01/10 11:20:43;;;;;;;17.88;5.30;;;;;;;;;;5112978;27;20027;-52
2022/01/10 11:23:09;;;;;;;13.75;4.80;;;;;;;;;;5111221;27;20250;-53
2022/01/10 11:25:37;;;;;;;13.82;4.38;;;;;;;;;;5109654;27;20126;-52
2022/01/10 11:28:08;;;;;;;12.23;4.03;;;;;;;;;;5114075;27;20045;-53
2022/01/10 11:30:35;;;;;;;11.68;3.97;;;;;;;;;;5110202;27;20031;-52
2022/01/10 11:33:07;;;;;;;11.63;4.15;;;;;;;;;;5109771;27;20015;-50
2022/01/10 11:35:39;;;;;;;10.32;4.55;;;;;;;;;;5109059;27;20475;-49
2022/01/10 11:38:22;;;;;;;13.05;4.20;;;;;;;;;;5109170;27;20061;-49
2022/01/10 11:40:49;;;;;;;;;;;;;;;;;;5107147;27;20027;-52
2022/01/10 11:43:28;;;;;;;13.40;4.25;;;;;;;;;;5112699;27;20005;-50
2022/01/10 11:46:11;;;;;;;11.55;3.92;;;;;;;;;;5111894;27;20023;-50
2022/01/10 11:48:49;;;;;;;11.45;4.07;;;;;;;;;;5110612;27;20072;-48
2022/01/10 11:51:17;;;;;;;18.13;4.28;;;;;;;;;;5108903;27;20023;-49
2022/01/10 11:53:45;;;;;;;17.27;3.72;;;;;;;;;;5112048;27;20495;-50
2022/01/10 11:56:32;;;;;;;10.27;3.95;;;;;;;;;;5110471;27;20063;-49
2022/01/10 11:59:27;;;;;;;14.05;4.00;;;;;;;;;;5111317;27;20031;-50
2022/01/10 12:02:04;;;;;;;12.13;4.40;;;;;;;;;;5105954;27;20482;-49
2022/01/10 12:04:35;;;;;;;10.82;3.90;;;;;;;;;;5109793;27;20026;-49
2022/01/10 12:07:02;;;;;;;11.32;3.58;;;;;;;;;;5108425;27;20039;-52
2022/01/10 12:09:28;;;;;;;9.77;3.80;;;;;;;;;;5109763;27;20031;-50
2022/01/10 12:11:54;;;;;;;11.45;3.55;;;;;;;;;;5110210;27;20034;-50
2022/01/10 12:14:21;;;;;;;11.65;4.15;;;;;;;;;;5107297;27;20087;-52
2022/01/10 12:16:47;;;;;;;8.55;3.22;;;;;;;;;;5110593;27;20050;-54
2022/01/10 12:19:13;;;;;;;11.68;4.22;;;;;;;;;;5108911;27;20035;-52
2022/01/10 12:21:39;;;;;;;11.13;3.50;;;;;;;;;;5110792;27;20023;-51
2022/01/10 12:24:06;;;;;;;8.70;3.05;;;;;;;;;;5108585;27;20083;-52
2022/01/10 12:26:32;;;;;;;7.50;3.30;;;;;;;;;;5109562;27;20035;-51
2022/01/10 12:28:59;;;;;;;7.03;2.90;;;;;;;;;;5109393;27;20039;-50
2022/01/10 12:31:28;;;;;;;8.68;3.50;;;;;;;;;;5108844;27;20507;-54
2022/01/10 12:33:55;;;;;;;12.23;3.55;;;;;;;;;;5108437;27;20158;-54
2022/01/10 12:36:22;;;;;;;12.70;4.20;;;;;;;;;;5107260;27;20032;-56
2022/01/10 12:38:52;;;;;;;10.98;3.58;;;;;;;;;;5108311;27;20108;-52
2022/01/10 12:41:20;;;;;;;11.63;3.72;;;;;;;;;;5108845;27;20125;-52
2022/01/10 12:43:47;;;;;;;15.52;4.15;;;;;;;;;;5108314;27;20038;-53
2022/01/10 12:46:13;;;;;;;15.68;4.45;;;;;;;;;;5107613;27;20034;-51
2022/01/10 12:48:40;;;;;;;11.65;4.00;;;;;;;;;;5108497;27;20038;-52
2022/01/10 12:51:06;;;;;;;12.27;4.60;;;;;;;;;;5108924;27;20038;-51
2022/01/10 12:53:32;;;;;;;11.07;4.15;;;;;;;;;;5112030;27;20036;-50
2022/01/10 12:55:57;;;;;;;13.30;4.78;;;;;;;;;;5109029;27;20031;-58
2022/01/10 12:58:23;;;;;;;12.30;4.30;;;;;;;;;;5108254;27;20035;-50
2022/01/10 13:00:48;;;;;;;10.50;4.38;;;;;;;;;;5109508;27;20023;-51
2022/01/10 13:03:16;;;;;;;11.07;4.05;;;;;;;;;;5109752;27;20027;-52
2022/01/10 13:05:42;;;;;;;16.83;4.95;;;;;;;;;;5106920;28;20047;-52
2022/01/10 13:08:07;;;;;;;11.50;4.05;;;;;;;;;;5107885;27;20304;-50
2022/01/10 13:10:35;;;;;;;11.15;4.28;;;;;;;;;;5107104;27;20130;-56
2022/01/10 13:13:02;;;;;;;8.75;4.00;;;;;;;;;;5110039;28;20028;-54
2022/01/10 13:15:37;;;;;;;12.98;4.22;;;;;;;;;;5107208;28;20044;-52
2022/01/10 13:18:03;;;;;;;10.60;3.88;;;;;;;;;;5109317;28;20031;-54
2022/01/10 13:20:32;;;;;;;12.75;4.55;;;;;;;;;;5107726;28;20111;-53
2022/01/10 13:23:03;;;;;;;12.63;4.40;;;;;;;;;;5109029;28;20108;-55
2022/01/10 13:25:39;;;;;;;9.05;3.80;;;;;;;;;;5091569;28;20039;-54
2022/01/10 13:28:08;;;;;;;14.98;4.18;;;;;;;;;;5107411;28;20062;-54
2022/01/10 13:30:35;;;;;;;10.90;4.28;;;;;;;;;;5108697;28;20028;-56
2022/01/10 13:33:09;;;;;;;11.75;4.47;;;;;;;;;;5106422;28;20046;-54
2022/01/10 13:35:37;;;;;;;9.23;4.80;;;;;;;;;;5109750;28;20034;-53
2022/01/10 13:38:10;;;;;;;13.15;3.80;;;;;;;;;;5107520;28;20080;-51
2022/01/10 13:40:49;;;;;;;10.90;3.95;;;;;;;;;;5107272;28;20027;-55
2022/01/10 13:43:24;;;;;;;8.93;3.55;;;;;;;;;;5110436;28;20031;-57
2022/01/10 13:45:55;;;;;;;8.30;3.70;;;;;;;;;;5110856;28;20039;-55
2022/01/10 13:48:38;;;;;;;10.32;3.58;;;;;;;;;;5108993;28;20027;-54
2022/01/10 13:51:06;;;;;;;9.57;3.63;;;;;;;;;;5107059;28;20038;-54
2022/01/10 13:53:50;;;;;;;8.75;3.97;;;;;;;;;;5109046;28;20028;-53
2022/01/10 13:56:25;;;;;;;7.28;3.85;;;;;;;;;;5106336;28;20034;-56
2022/01/10 13:58:55;;;;;;;11.55;3.90;;;;;;;;;;5107221;28;20122;-56
2022/01/10 14:01:23;;;;;;;11.77;4.78;;;;;;;;;;5106986;28;20062;-52
2022/01/10 14:03:50;;;;;;;9.95;4.20;;;;;;;;;;5108984;28;20015;-53
2022/01/10 14:06:17;;;;;;;12.32;4.70;;;;;;;;;;5109519;28;20023;-53
2022/01/10 14:08:46;;;;;;;10.68;4.18;;;;;;;;;;5107259;28;20035;-56
2022/01/10 14:11:16;;;;;;;10.23;4.85;;;;;;;;;;5108654;28;20565;-55
2022/01/10 14:13:43;;;;;;;15.07;5.43;;;;;;;;;;5109727;28;20031;-54
2022/01/10 14:16:09;;;;;;;15.52;4.50;;;;;;;;;;5106902;28;20046;-53
2022/01/10 14:18:35;;;;;;;16.10;4.55;;;;;;;;;;5108513;28;20019;-55
2022/01/10 14:21:00;;;;;;;10.70;4.70;;;;;;;;;;5111294;27;20110;-58
2022/01/10 14:23:26;;;;;;;22.38;5.28;;;;;;;;;;5112175;27;20028;-56
2022/01/10 14:25:52;;;;;;;26.42;5.78;;;;;;;;;;5110381;27;20039;-57
2022/01/10 14:28:18;;;;;;;12.65;4.95;;;;;;;;;;5110379;27;20034;-50
2022/01/10 14:30:45;;;;;;;12.38;3.28;;;;;;;;;;5111287;27;20490;-58
2022/01/10 14:33:11;;;;;;;9.77;3.95;;;;;;;;;;5113038;27;20028;-55
2022/01/10 14:35:37;;;;;;;7.55;2.88;;;;;;;;;;5112460;27;20031;-56
2022/01/10 14:38:02;;;;;;;8.85;3.25;;;;;;;;;;5111510;27;20154;-52
2022/01/10 14:40:27;;;;;;;6.05;2.90;;;;;;;;;;5112161;27;20031;-52
2022/01/10 14:42:53;;;;;;;12.35;3.38;;;;;;;;;;5111305;27;20031;-57
2022/01/10 14:45:18;;;;;;;9.88;3.97;;;;;;;;;;5111381;27;20031;-55